Time;durP1;ratioP1;P1;durP2;ratioP2;P2;SDS_P1;SDS_P2;PMS_P1;PMS_P2;Temp;Humidity;BMP_temperature;BMP_pressure;BME280_temperature;BME280_humidity;BME280_pressure;Samples;Min_cycle;Max_cycle;Signal;HPM_P1;HPM_P2
2023/06/27 00:01:55;;;;;;;1.53;1.00;;;19.60;48.70;;;19.47;44.76;98108.84;4988338;28;20479;-71
2023/06/27 00:04:23;;;;;;;1.63;1.37;;;19.60;48.30;;;19.30;44.65;98107.16;4992335;28;20463;-71
2023/06/27 00:06:52;;;;;;;1.50;1.30;;;19.50;48.20;;;19.23;44.88;98110.16;4994098;28;20542;-71
2023/06/27 00:09:20;;;;;;;1.27;1.17;;;19.40;48.20;;;19.35;44.58;98117.31;4980923;28;20848;-70
2023/06/27 00:11:47;;;;;;;1.87;1.67;;;19.40;48.30;;;19.31;44.95;98124.41;4987808;28;20557;-72
2023/06/27 00:14:14;;;;;;;1.50;1.40;;;19.40;48.40;;;19.25;45.12;98124.41;4988734;28;20823;-72
2023/06/27 00:16:42;;;;;;;1.43;1.20;;;19.40;48.40;;;19.08;45.35;98099.16;4989218;28;20467;-71
2023/06/27 00:19:10;;;;;;;3.33;1.57;;;19.40;48.50;;;19.22;45.14;98116.72;4972822;28;20456;-71
2023/06/27 00:21:37;;;;;;;1.43;1.33;;;19.30;48.40;;;19.23;45.21;98132.06;4987384;28;20455;-71
2023/06/27 00:24:07;;;;;;;1.13;1.03;;;19.30;48.50;;;19.28;44.94;98120.31;4973766;28;20819;-71
2023/06/27 00:26:35;;;;;;;1.00;0.90;;;19.30;48.40;;;19.18;45.05;98123.00;4988258;28;20461;-73
2023/06/27 00:29:02;;;;;;;1.63;1.13;;;19.30;48.30;;;19.11;45.20;98129.56;4983864;28;20448;-71
2023/06/27 00:31:29;;;;;;;1.63;1.10;;;19.30;48.40;;;19.18;45.09;98129.28;4987965;28;20467;-70
2023/06/27 00:33:57;;;;;;;2.17;1.80;;;19.20;48.40;;;19.11;45.17;98128.75;4991299;28;20460;-70
2023/06/27 00:36:24;;;;;;;2.10;1.50;;;19.20;48.50;;;19.10;45.38;98124.34;4962898;28;20448;-71
2023/06/27 00:38:51;;;;;;;1.47;1.00;;;19.20;48.60;;;18.90;45.83;98136.84;4983246;28;20467;-70
2023/06/27 00:41:20;;;;;;;1.40;1.30;;;19.10;48.60;;;18.83;45.76;98119.84;4966976;28;21009;-71
2023/06/27 00:43:47;;;;;;;1.70;1.30;;;19.00;49.10;;;18.84;45.92;98140.66;4988116;28;20480;-72
2023/06/27 00:46:35;;;;;;;1.77;1.53;;;19.00;48.80;;;18.74;46.00;98127.75;4989424;28;20499;-71
2023/06/27 00:49:02;;;;;;;1.37;1.17;;;18.90;48.80;;;18.85;45.61;98141.47;4968961;28;20467;-72
2023/06/27 00:51:31;;;;;;;1.90;1.20;;;18.90;48.70;;;18.71;46.50;98152.06;4988013;28;20809;-70
2023/06/27 00:53:58;;;;;;;1.40;1.27;;;18.80;48.80;;;18.64;46.60;98146.84;4975142;28;20456;-69
2023/06/27 00:56:28;;;;;;;1.87;1.57;;;18.70;48.90;;;18.73;46.28;98149.88;4988589;28;20460;-73
2023/06/27 00:58:58;;;;;;;1.83;1.63;;;18.70;48.90;;;18.52;46.35;98149.78;4973325;28;20441;-71
2023/06/27 01:01:25;;;;;;;2.10;1.50;;;18.70;49.00;;;18.52;46.71;98156.09;4988410;28;20463;-71
2023/06/27 01:03:53;;;;;;;1.83;1.20;;;18.70;49.10;;;18.46;46.98;98157.13;4993366;28;20500;-72
2023/06/27 01:06:29;;;;;;;1.93;1.13;;;18.60;49.20;;;18.37;47.02;98148.59;4987520;28;20499;-71
2023/06/27 01:09:03;;;;;;;1.87;1.27;;;18.50;49.30;;;18.38;47.38;98160.38;4990138;28;20648;-70
2023/06/27 01:11:39;;;;;;;1.17;1.10;;;18.40;49.30;;;18.23;47.74;98163.81;4988755;28;20482;-72
2023/06/27 01:14:07;;;;;;;2.57;1.60;;;18.30;49.50;;;18.17;47.76;98153.94;4967486;28;20452;-71
2023/06/27 01:16:37;;;;;;;1.60;1.23;;;18.30;49.70;;;18.16;48.39;98153.09;4993435;28;20456;-72
2023/06/27 01:19:08;;;;;;;1.77;1.47;;;18.20;49.90;;;18.16;48.34;98168.69;4988053;28;20460;-70
2023/06/27 01:21:37;;;;;;;2.27;1.40;;;18.10;50.00;;;18.23;48.82;98164.66;4983963;28;21199;-72
2023/06/27 01:24:07;;;;;;;1.50;1.40;;;18.20;50.50;;;18.07;49.65;98166.44;4987638;28;20479;-70
2023/06/27 01:26:35;;;;;;;1.77;1.67;;;18.20;50.90;;;18.06;50.16;98170.25;4965687;28;20572;-71
2023/06/27 01:29:02;;;;;;;2.20;1.57;;;18.10;51.00;;;17.64;50.13;98113.56;4988167;28;20551;-69
2023/06/27 01:31:37;;;;;;;2.00;1.60;;;18.10;51.20;;;17.87;50.51;98175.25;4984571;28;20531;-71
2023/06/27 01:34:10;;;;;;;2.60;1.60;;;18.00;51.20;;;17.92;50.34;98174.47;4986770;28;20475;-70
2023/06/27 01:36:46;;;;;;;2.13;1.93;;;18.00;51.50;;;17.80;50.71;98183.66;4976156;28;20457;-71
2023/06/27 01:39:19;;;;;;;2.87;1.40;;;17.90;51.50;;;17.63;51.33;98182.94;4983338;28;20526;-72
2023/06/27 01:41:53;;;;;;;1.57;1.47;;;17.80;51.70;;;17.75;50.99;98180.06;4986181;28;20452;-71
2023/06/27 01:44:21;;;;;;;1.53;1.43;;;17.80;51.80;;;17.72;50.78;98181.41;4984276;28;20475;-72
2023/06/27 01:46:49;;;;;;;2.10;1.80;;;17.70;51.60;;;17.57;51.40;98179.31;4965207;28;20461;-72
2023/06/27 01:49:17;;;;;;;2.23;1.40;;;17.70;51.80;;;17.54;50.99;98177.13;4965905;28;20992;-73
2023/06/27 01:51:45;;;;;;;2.43;2.00;;;17.70;51.80;;;17.33;51.32;98184.25;4984271;28;20556;-70
2023/06/27 01:54:12;;;;;;;2.03;1.70;;;17.50;51.70;;;17.42;51.35;98180.00;4984323;28;20464;-69
2023/06/27 01:56:41;;;;;;;2.23;1.20;;;17.50;52.10;;;17.46;51.15;98181.13;4985172;28;20929;-71
2023/06/27 01:59:08;;;;;;;2.07;1.47;;;17.50;52.00;;;17.37;51.36;98182.69;4980613;28;20519;-70
2023/06/27 02:01:35;;;;;;;1.80;1.30;;;17.40;52.10;;;16.88;51.64;98118.75;4985774;28;20471;-70
2023/06/27 02:04:03;;;;;;;2.40;1.50;;;17.40;52.10;;;17.12;52.00;98176.66;4964241;28;20482;-70
2023/06/27 02:06:30;;;;;;;2.10;1.93;;;17.30;52.20;;;17.14;51.91;98190.06;4985579;28;20486;-71
2023/06/27 02:08:57;;;;;;;1.43;1.33;;;17.20;52.30;;;17.03;52.35;98189.09;4965494;28;20487;-71
2023/06/27 02:11:25;;;;;;;1.37;1.27;;;17.20;52.50;;;17.03;52.07;98178.19;4959354;28;20464;-70
2023/06/27 02:13:53;;;;;;;1.63;1.10;;;17.10;52.50;;;17.12;51.84;98181.28;4985151;28;20448;-70
2023/06/27 02:16:20;;;;;;;1.77;1.53;;;17.10;52.70;;;17.19;52.04;98187.38;4981620;28;20463;-70
2023/06/27 02:18:48;;;;;;;1.30;1.20;;;17.20;52.70;;;17.06;51.88;98195.94;4978978;28;21030;-71
2023/06/27 02:21:15;;;;;;;1.20;1.10;;;17.10;52.60;;;16.94;52.06;98180.50;4965790;28;20555;-71
2023/06/27 02:23:42;;;;;;;2.60;1.60;;;17.10;52.60;;;16.84;52.87;98188.53;4987312;28;20995;-71
2023/06/27 02:26:10;;;;;;;1.83;1.33;;;16.90;52.80;;;16.70;53.01;98191.63;4978590;28;20467;-70
2023/06/27 02:28:37;;;;;;;3.07;1.47;;;16.90;53.00;;;16.73;52.96;98184.03;4981253;28;20575;-69
2023/06/27 02:31:05;;;;;;;1.50;1.30;;;16.80;53.30;;;16.74;53.24;98188.41;4980682;28;20469;-70
2023/06/27 02:33:33;;;;;;;1.53;1.27;;;16.80;53.50;;;16.56;53.74;98188.44;4986272;28;20561;-72
2023/06/27 02:36:00;;;;;;;1.83;1.73;;;16.60;53.50;;;16.66;53.07;98187.75;4964927;28;20456;-73
2023/06/27 02:38:27;;;;;;;1.50;1.40;;;16.60;53.60;;;16.55;53.45;98185.97;4986552;28;20451;-70
2023/06/27 02:40:55;;;;;;;1.57;1.40;;;16.60;53.70;;;16.69;53.69;98181.00;4984622;28;20444;-72
2023/06/27 02:43:22;;;;;;;2.03;1.33;;;16.60;54.00;;;16.60;53.71;98188.75;4982191;28;21112;-70
2023/06/27 02:45:50;;;;;;;1.83;1.53;;;16.60;53.80;;;16.49;53.86;98186.97;4970673;28;20510;-71
2023/06/27 02:48:19;;;;;;;2.67;1.63;;;16.60;54.10;;;16.53;54.11;98188.97;4977526;28;20452;-71
2023/06/27 02:50:50;;;;;;;3.47;1.73;;;16.50;54.20;;;16.53;53.64;98185.38;4984581;28;20463;-71
2023/06/27 02:53:18;;;;;;;1.50;1.40;;;16.50;54.30;;;16.47;54.22;98179.03;4984420;28;20512;-72
2023/06/27 02:55:45;;;;;;;3.10;1.43;;;16.50;54.50;;;16.52;53.85;98186.47;4984272;28;20448;-73
2023/06/27 02:58:13;;;;;;;2.80;1.90;;;16.50;54.50;;;16.64;53.35;98192.66;4983729;28;20551;-71
2023/06/27 03:00:41;;;;;;;4.03;1.90;;;16.60;54.40;;;16.61;53.65;98190.44;4982478;28;20491;-72
2023/06/27 03:03:08;;;;;;;1.20;1.10;;;16.50;54.30;;;16.51;53.59;98188.34;4985140;28;20460;-69
2023/06/27 03:05:36;;;;;;;2.00;1.70;;;16.50;54.40;;;16.45;54.13;98188.53;4969913;28;20479;-70
2023/06/27 03:08:03;;;;;;;3.10;1.80;;;16.50;54.70;;;16.42;54.35;98187.94;4984265;28;20638;-71
2023/06/27 03:10:31;;;;;;;3.20;1.67;;;16.40;54.80;;;16.43;54.14;98192.34;4985453;28;20452;-71
2023/06/27 03:12:58;;;;;;;3.27;1.70;;;16.50;54.90;;;16.50;54.52;98196.81;4982048;28;20811;-71
2023/06/27 03:15:25;;;;;;;1.67;1.50;;;16.50;55.20;;;16.54;54.11;98184.31;4987935;28;20984;-71
2023/06/27 03:17:53;;;;;;;1.83;1.60;;;16.50;55.20;;;16.49;54.29;98197.88;4990425;28;20460;-72
2023/06/27 03:20:21;;;;;;;2.23;1.63;;;16.50;55.10;;;16.32;54.60;98190.53;4989064;28;20844;-73
2023/06/27 03:22:49;;;;;;;2.10;1.90;;;16.40;55.20;;;16.36;54.81;98197.16;4994536;28;20488;-69
2023/06/27 03:25:17;;;;;;;2.07;1.60;;;16.40;55.40;;;16.30;55.02;98195.41;4988622;28;20879;-71
2023/06/27 03:27:44;;;;;;;1.53;1.43;;;16.40;55.40;;;16.18;55.23;98202.84;4973680;28;21290;-71
2023/06/27 03:30:13;;;;;;;1.67;1.40;;;16.30;55.50;;;16.17;55.24;98206.66;4966989;28;20476;-70
2023/06/27 03:32:40;;;;;;;2.73;1.57;;;16.20;55.70;;;16.09;55.47;98211.44;4987590;28;20460;-71
2023/06/27 03:35:09;;;;;;;1.63;1.47;;;16.10;55.70;;;16.10;55.31;98212.25;4987598;28;20859;-70
2023/06/27 03:37:36;;;;;;;4.10;2.00;;;16.10;55.70;;;16.18;54.97;98209.13;4981325;28;20467;-71
2023/06/27 03:40:06;;;;;;;2.60;2.00;;;16.20;55.80;;;16.22;54.61;98212.19;4974165;28;20995;-70
2023/06/27 03:42:34;;;;;;;1.97;1.70;;;16.20;55.50;;;16.16;54.77;98218.63;4988780;28;20514;-70
2023/06/27 03:45:01;;;;;;;1.93;1.77;;;16.20;55.60;;;16.25;54.34;98208.94;4971173;28;20879;-72
2023/06/27 03:47:30;;;;;;;1.53;1.43;;;16.30;55.80;;;16.29;54.41;98215.56;4987560;28;20464;-70
2023/06/27 03:49:58;;;;;;;1.80;1.70;;;16.30;55.60;;;16.29;54.27;98221.00;4993821;28;20483;-71
2023/06/27 03:52:25;;;;;;;3.17;1.77;;;16.30;55.50;;;16.24;54.42;98218.22;4986101;28;20834;-71
2023/06/27 03:54:52;;;;;;;4.13;1.90;;;16.30;55.20;;;16.33;53.73;98215.88;4990564;28;20466;-71
2023/06/27 03:57:21;;;;;;;2.00;1.40;;;16.40;55.20;;;16.23;54.33;98230.19;4989946;28;20537;-71
2023/06/27 03:59:48;;;;;;;1.50;1.40;;;16.30;55.10;;;16.26;54.14;98232.41;4990757;28;20460;-70
2023/06/27 04:02:15;;;;;;;1.83;1.63;;;16.40;55.30;;;16.45;53.92;98223.97;4991704;28;20527;-70
2023/06/27 04:04:43;;;;;;;2.63;2.17;;;16.40;55.70;;;16.28;54.59;98242.00;4988246;28;20471;-72
2023/06/27 04:07:11;;;;;;;2.23;1.90;;;16.40;55.50;;;16.43;54.34;98226.97;4987965;28;20459;-70
2023/06/27 04:09:38;;;;;;;1.80;1.70;;;16.40;55.70;;;16.37;54.75;98222.50;4998262;28;20459;-70
2023/06/27 04:12:05;;;;;;;7.20;1.70;;;16.50;55.80;;;16.38;54.60;98238.63;4971226;28;20441;-71
2023/06/27 04:14:34;;;;;;;1.70;1.30;;;16.50;55.80;;;16.35;54.89;98241.84;4989993;28;20468;-71
2023/06/27 04:17:02;;;;;;;3.43;1.60;;;16.50;55.90;;;16.31;54.86;98248.03;4990103;28;20819;-71
2023/06/27 04:19:29;;;;;;;2.00;1.60;;;16.40;55.70;;;16.31;55.00;98246.16;4992158;28;20443;-71
2023/06/27 04:21:57;;;;;;;2.30;2.00;;;16.40;55.90;;;16.29;55.17;98248.25;4988857;28;20511;-72
2023/06/27 04:24:24;;;;;;;3.07;1.90;;;16.40;55.90;;;16.24;54.94;98250.91;4992348;28;20480;-71
2023/06/27 04:26:53;;;;;;;2.23;1.73;;;16.40;55.90;;;16.37;54.38;98253.31;4989013;28;20587;-71
2023/06/27 04:29:21;;;;;;;3.10;1.83;;;16.40;56.00;;;16.39;55.17;98247.63;4989760;28;20436;-71
2023/06/27 04:31:50;;;;;;;2.17;1.53;;;16.50;56.20;;;16.64;54.16;98249.09;4971342;28;20465;-71
2023/06/27 04:34:17;;;;;;;3.37;1.60;;;16.60;56.10;;;16.81;54.06;98251.81;4970864;28;20494;-72
2023/06/27 04:36:44;;;;;;;3.00;1.57;;;16.80;56.10;;;16.64;53.93;98254.53;4987759;28;20532;-71
2023/06/27 04:39:11;;;;;;;2.00;1.87;;;16.70;55.70;;;16.63;54.41;98259.19;4985754;28;20460;-72
2023/06/27 04:41:39;;;;;;;3.40;2.20;;;16.70;55.90;;;16.79;53.93;98253.97;4983312;28;20501;-71
2023/06/27 04:44:09;;;;;;;1.40;1.30;;;16.80;56.10;;;16.64;54.75;98249.09;4991796;28;21245;-71
2023/06/27 04:46:37;;;;;;;1.83;1.73;;;16.70;56.10;;;16.64;54.50;98260.84;4991067;28;20796;-71
2023/06/27 04:49:06;;;;;;;3.60;1.90;;;16.70;55.90;;;16.60;54.25;98250.66;4975493;28;20459;-71
2023/06/27 04:51:35;;;;;;;1.73;1.47;;;16.80;56.00;;;16.45;54.73;98256.69;4985145;28;20465;-72
2023/06/27 04:54:02;;;;;;;2.30;2.00;;;16.60;56.00;;;16.60;54.50;98267.84;4982981;28;20532;-72
2023/06/27 04:56:29;;;;;;;1.97;1.30;;;16.70;56.00;;;16.71;54.39;98266.94;4992115;28;20456;-71
2023/06/27 04:58:56;;;;;;;1.93;1.40;;;16.70;56.10;;;16.63;54.19;98274.72;4981602;28;21048;-71
2023/06/27 05:01:24;;;;;;;3.47;1.70;;;16.80;55.90;;;16.74;54.52;98271.06;4984889;28;20537;-71
2023/06/27 05:03:52;;;;;;;2.60;1.87;;;16.70;56.20;;;16.84;53.49;98267.66;4984073;28;20526;-74
2023/06/27 05:06:21;;;;;;;2.77;2.13;;;16.80;56.00;;;16.78;53.80;98271.41;4974297;28;20467;-78
2023/06/27 05:08:48;;;;;;;3.20;1.40;;;16.80;55.90;;;16.52;54.11;98243.72;4982486;28;20460;-73
2023/06/27 05:11:15;;;;;;;1.70;1.60;;;16.80;55.90;;;16.48;54.27;98240.66;4983492;28;20460;-71
2023/06/27 05:13:42;;;;;;;2.73;2.30;;;16.80;56.10;;;17.04;54.07;98279.97;4978954;28;20832;-71
2023/06/27 05:16:10;;;;;;;3.00;1.50;;;16.90;56.40;;;17.08;53.32;98232.03;4963463;28;20507;-71
2023/06/27 05:18:37;;;;;;;1.90;1.70;;;17.20;56.50;;;17.42;53.61;98287.31;4988096;28;20460;-73
2023/06/27 05:21:05;;;;;;;1.97;1.83;;;17.40;56.30;;;17.44;53.09;98280.78;4983059;28;20718;-71
2023/06/27 05:23:33;;;;;;;2.10;1.60;;;17.50;56.00;;;17.82;51.63;98290.81;4975159;28;21038;-73
2023/06/27 05:26:01;;;;;;;2.77;1.73;;;17.70;55.70;;;17.67;51.92;98282.44;4983465;28;20558;-69
2023/06/27 05:28:29;;;;;;;1.67;1.40;;;17.70;55.40;;;17.63;51.86;98297.66;4957048;28;20536;-69
2023/06/27 05:30:59;;;;;;;4.97;1.63;;;17.70;55.10;;;17.56;51.60;98285.03;4977482;28;20456;-70
2023/06/27 05:33:26;;;;;;;1.67;1.50;;;17.60;54.90;;;17.49;51.66;98292.59;4983712;28;20555;-70
2023/06/27 05:35:54;;;;;;;2.87;1.90;;;17.60;54.70;;;17.70;51.29;98296.41;4980117;28;20564;-70
2023/06/27 05:38:21;;;;;;;4.37;1.60;;;17.70;55.00;;;17.97;51.15;98292.06;4982353;28;20455;-71
2023/06/27 05:40:50;;;;;;;1.70;1.33;;;17.80;54.80;;;17.95;50.51;98295.03;4982900;28;20453;-70
2023/06/27 05:43:17;;;;;;;2.63;1.60;;;17.90;54.40;;;17.83;50.84;98302.56;4981900;28;20988;-69
2023/06/27 05:45:44;;;;;;;1.83;1.70;;;17.80;54.30;;;17.81;50.78;98302.78;4965412;28;20453;-70
2023/06/27 05:48:12;;;;;;;2.00;1.47;;;17.90;54.30;;;17.78;50.85;98297.84;4963679;28;20444;-72
2023/06/27 05:50:40;;;;;;;1.53;1.40;;;17.90;54.20;;;17.70;50.84;98292.84;4964237;28;20925;-70
2023/06/27 05:53:07;;;;;;;2.30;1.47;;;17.90;54.40;;;17.84;51.16;98296.84;4978520;28;20526;-71
2023/06/27 05:55:35;;;;;;;1.37;1.27;;;17.90;54.50;;;17.83;51.34;98286.16;4979973;28;20460;-70
2023/06/27 05:58:03;;;;;;;1.30;1.20;;;17.80;54.60;;;17.95;51.31;98299.66;4980755;28;20448;-70
2023/06/27 06:00:31;;;;;;;2.30;1.10;;;17.90;54.90;;;17.77;51.14;98293.47;4976741;28;20476;-71
2023/06/27 06:02:58;;;;;;;2.20;1.40;;;17.90;54.40;;;17.74;51.40;98298.63;4981499;28;20468;-71
2023/06/27 06:05:26;;;;;;;1.20;1.10;;;17.80;54.50;;;17.45;52.11;98296.91;4987577;28;20483;-71
2023/06/27 06:07:53;;;;;;;1.90;1.40;;;17.60;54.80;;;17.63;51.70;98309.44;4981608;28;20448;-70
2023/06/27 06:10:21;;;;;;;1.20;1.10;;;17.60;54.80;;;17.53;51.62;98304.69;4969287;28;20456;-71
2023/06/27 06:12:49;;;;;;;1.40;1.10;;;17.60;54.60;;;17.72;51.35;98301.63;4984364;28;20532;-70
2023/06/27 06:15:18;;;;;;;2.50;1.30;;;17.70;54.80;;;17.67;51.47;98301.56;4979633;28;20488;-70
2023/06/27 06:17:45;;;;;;;2.03;1.87;;;17.60;54.70;;;17.61;51.64;98297.94;4980952;28;20464;-70
2023/06/27 06:20:13;;;;;;;2.30;1.50;;;17.60;54.80;;;17.78;51.30;98305.25;4984449;28;20466;-71
2023/06/27 06:22:40;;;;;;;1.73;1.10;;;17.70;54.60;;;18.02;50.46;98302.19;4982477;28;20515;-70
2023/06/27 06:25:08;;;;;;;1.90;1.70;;;17.90;54.50;;;18.05;50.58;98307.22;4982428;28;20476;-70
2023/06/27 06:27:35;;;;;;;1.50;1.20;;;18.00;54.40;;;18.24;50.22;98307.66;4982753;28;20463;-70
2023/06/27 06:30:03;;;;;;;1.43;1.27;;;18.20;54.40;;;18.22;49.97;98309.81;4987000;28;20448;-73
2023/06/27 06:32:33;;;;;;;1.77;1.23;;;18.30;54.20;;;18.19;50.24;98313.06;4974258;28;20453;-71
2023/06/27 06:35:01;;;;;;;1.40;1.30;;;18.20;54.20;;;18.44;50.20;98311.69;4982353;28;20464;-69
2023/06/27 06:37:28;;;;;;;3.40;1.13;;;18.30;54.50;;;18.30;50.12;98317.56;4958246;28;20456;-69
2023/06/27 06:39:55;;;;;;;3.23;0.90;;;18.40;54.10;;;18.05;50.42;98318.94;4983417;28;20456;-69
2023/06/27 06:42:22;;;;;;;1.37;1.27;;;18.20;54.00;;;18.12;50.53;98305.91;4977191;28;20461;-70
2023/06/27 06:44:50;;;;;;;1.97;1.57;;;18.20;54.20;;;18.27;49.99;98307.13;4985778;28;20480;-70
2023/06/27 06:47:18;;;;;;;1.20;1.10;;;18.20;54.20;;;18.21;49.89;98306.28;4985250;28;20758;-71
2023/06/27 06:49:46;;;;;;;2.80;0.80;;;18.30;54.00;;;18.03;49.47;98274.66;4985604;28;20459;-70
2023/06/27 06:52:14;;;;;;;3.20;1.50;;;18.40;53.80;;;18.25;49.23;98271.00;4964386;28;20456;-70
2023/06/27 06:54:43;;;;;;;2.60;1.37;;;18.50;53.70;;;18.45;49.23;98314.13;4986297;28;20453;-70
2023/06/27 06:57:11;;;;;;;1.20;1.10;;;18.50;53.60;;;18.77;48.83;98318.78;4985572;28;20563;-71
2023/06/27 06:59:38;;;;;;;2.20;1.20;;;18.70;53.60;;;19.13;48.20;98322.91;4990338;28;20953;-70
2023/06/27 07:02:06;;;;;;;2.53;1.77;;;19.00;53.60;;;19.31;47.87;98319.72;4985049;28;20515;-72
2023/06/27 07:04:34;;;;;;;1.83;1.47;;;19.20;53.40;;;19.81;46.33;98317.47;4991840;28;20774;-70
2023/06/27 07:07:03;;;;;;;1.10;1.00;;;19.60;52.90;;;20.33;45.52;98311.31;4971739;28;20635;-70
2023/06/27 07:09:30;;;;;;;2.00;1.27;;;20.10;52.60;;;20.46;44.77;98312.69;4963676;28;20863;-71
2023/06/27 07:11:58;;;;;;;5.00;2.00;;;20.40;52.20;;;20.48;44.91;98318.72;4973298;28;20465;-69
2023/06/27 07:14:26;;;;;;;1.60;1.50;;;20.40;51.80;;;20.33;45.40;98312.13;4978502;28;20519;-70
2023/06/27 07:16:53;;;;;;;1.37;1.20;;;20.40;51.80;;;20.18;44.14;98312.09;4979493;28;20463;-70
2023/06/27 07:19:21;;;;;;;1.87;1.47;;;20.30;51.10;;;20.01;43.80;98304.94;4987791;28;20466;-69
2023/06/27 07:21:48;;;;;;;2.80;1.20;;;20.20;50.20;;;19.90;44.40;98314.19;4961716;28;20451;-68
2023/06/27 07:24:17;;;;;;;1.33;0.77;;;19.90;50.60;;;19.65;43.97;98313.03;4976638;28;20524;-69
2023/06/27 07:26:44;;;;;;;1.77;1.07;;;19.70;50.30;;;19.66;43.52;98315.47;4984722;28;20448;-69
2023/06/27 07:29:11;;;;;;;0.77;0.77;;;19.70;49.90;;;19.39;43.66;98318.38;4989087;28;20803;-69
2023/06/27 07:31:39;;;;;;;1.20;1.10;;;19.40;49.40;;;19.36;44.82;98317.00;4979794;28;20953;-69
2023/06/27 07:34:06;;;;;;;2.00;0.93;;;19.40;50.20;;;19.24;43.05;98313.63;4983660;28;20473;-70
2023/06/27 07:36:34;;;;;;;1.20;0.90;;;19.30;49.10;;;19.35;43.22;98314.53;4982187;28;20551;-69
2023/06/27 07:39:02;;;;;;;0.93;0.80;;;19.40;49.00;;;19.36;43.18;98316.19;4968501;28;20533;-69
2023/06/27 07:41:30;;;;;;;1.93;0.83;;;19.30;49.00;;;19.30;42.93;98262.44;4969794;28;20961;-68
2023/06/27 07:43:58;;;;;;;1.93;0.93;;;19.50;49.20;;;19.44;43.31;98321.13;4971336;28;20988;-69
2023/06/27 07:46:25;;;;;;;1.90;1.10;;;19.40;49.10;;;19.32;43.64;98317.78;4985563;28;20475;-69
2023/06/27 07:48:54;;;;;;;2.00;1.37;;;19.30;49.20;;;19.10;43.63;98316.03;4987447;28;20550;-69
2023/06/27 07:51:21;;;;;;;2.03;1.13;;;19.20;49.00;;;19.18;43.87;98320.19;4970327;28;20536;-69
2023/06/27 07:53:48;;;;;;;2.10;1.33;;;19.10;49.30;;;19.45;42.76;98313.75;4987338;28;20452;-70
2023/06/27 07:56:16;;;;;;;2.27;1.20;;;19.30;49.10;;;19.41;43.51;98313.47;4966477;28;20946;-69
2023/06/27 07:58:45;;;;;;;1.53;1.00;;;19.30;49.20;;;19.23;43.63;98307.34;4982274;28;20546;-69
2023/06/27 08:01:13;;;;;;;0.80;0.67;;;19.30;49.10;;;19.69;42.17;98311.41;4985759;28;20466;-70
2023/06/27 08:03:41;;;;;;;2.40;1.03;;;19.50;48.60;;;19.86;41.87;98302.13;4985788;28;20471;-70
2023/06/27 08:06:08;;;;;;;2.17;1.30;;;19.80;48.50;;;19.99;41.66;98309.03;4989006;28;20484;-69
2023/06/27 08:08:36;;;;;;;2.33;1.10;;;19.70;48.40;;;20.45;41.18;98306.38;4989100;28;20457;-70
2023/06/27 08:11:03;;;;;;;2.43;1.10;;;20.20;48.50;;;20.72;40.15;98297.03;4980202;28;20531;-68
2023/06/27 08:13:31;;;;;;;1.90;1.20;;;20.60;48.00;;;20.87;40.07;98295.41;4985559;28;20457;-71
2023/06/27 08:16:02;;;;;;;1.00;0.90;;;20.70;47.80;;;20.95;39.43;98284.69;4985828;28;20484;-69
2023/06/27 08:18:30;;;;;;;1.43;0.80;;;20.80;47.40;;;21.27;38.60;98303.84;4993361;28;20807;-69
2023/06/27 08:21:01;;;;;;;1.00;0.70;;;21.00;47.00;;;21.00;39.30;98297.59;4986804;28;21017;-69
2023/06/27 08:23:29;;;;;;;1.37;1.00;;;21.00;47.40;;;20.39;41.45;98302.78;4968763;28;20448;-70
2023/06/27 08:25:56;;;;;;;1.37;1.27;;;20.70;47.60;;;20.95;39.84;98298.41;4986816;28;20503;-69
2023/06/27 08:28:24;;;;;;;3.80;1.00;;;20.90;47.40;;;21.50;39.18;98295.00;4986718;28;20468;-68
2023/06/27 08:30:51;;;;;;;2.03;1.00;;;21.30;47.60;;;21.20;39.87;98299.47;4986241;28;20558;-71
2023/06/27 08:33:19;;;;;;;2.47;1.00;;;21.30;47.50;;;21.43;39.16;98294.44;4987093;28;20537;-69
2023/06/27 08:35:47;;;;;;;1.20;1.10;;;21.30;47.30;;;21.54;38.32;98288.94;4982555;28;22365;-70
2023/06/27 08:38:14;;;;;;;5.23;1.10;;;21.50;46.80;;;21.51;38.82;98284.81;4983461;28;20458;-69
2023/06/27 08:40:43;;;;;;;1.10;0.97;;;21.50;46.90;;;21.31;38.95;98285.72;4981652;28;20457;-70
2023/06/27 08:43:11;;;;;;;1.97;1.40;;;21.50;46.80;;;20.60;39.92;98280.88;4985767;28;20470;-70
2023/06/27 08:45:41;;;;;;;2.27;1.07;;;20.80;46.70;;;20.72;40.21;98280.56;4984583;28;20481;-69
2023/06/27 08:48:10;;;;;;;1.40;1.30;;;20.70;47.00;;;20.56;38.73;98284.44;4983376;28;20458;-70
2023/06/27 08:50:40;;;;;;;2.07;0.80;;;20.70;46.00;;;20.70;38.95;98281.94;4965359;28;20460;-69
2023/06/27 08:53:13;;;;;;;1.77;1.10;;;20.70;46.30;;;20.62;39.20;98281.41;4967194;28;20827;-69
2023/06/27 08:55:51;;;;;;;1.17;0.90;;;20.80;46.30;;;20.98;38.80;98282.47;4986935;28;20460;-68
2023/06/27 08:58:24;;;;;;;2.27;1.30;;;21.00;46.50;;;20.50;38.69;98300.91;4982315;28;20479;-69
2023/06/27 09:00:57;;;;;;;2.40;1.37;;;20.70;45.90;;;19.93;39.02;98247.88;4980746;28;20491;-69
2023/06/27 09:03:25;;;;;;;1.50;1.07;;;20.40;45.80;;;20.20;39.09;98277.00;4977181;28;20563;-70
2023/06/27 09:05:55;;;;;;;2.57;1.10;;;20.30;45.90;;;20.10;39.71;98275.06;4986956;28;20473;-69
2023/06/27 09:08:22;;;;;;;1.43;1.33;;;20.30;46.20;;;19.97;40.28;98284.66;4982622;28;20500;-71
2023/06/27 09:10:50;;;;;;;1.67;1.00;;;20.20;46.20;;;19.99;40.14;98274.22;4985305;28;20461;-69
2023/06/27 09:13:19;;;;;;;2.50;0.80;;;20.10;46.50;;;20.34;39.59;98278.09;4981957;28;20463;-70
2023/06/27 09:15:46;;;;;;;2.40;1.67;;;20.30;46.30;;;20.51;39.40;98269.63;4985184;28;20448;-69
2023/06/27 09:18:14;;;;;;;1.27;1.17;;;20.50;46.50;;;20.36;39.41;98259.44;4969833;28;20453;-70
2023/06/27 09:20:41;;;;;;;1.47;1.03;;;20.30;46.10;;;20.61;39.08;98268.78;4985356;28;20479;-70
2023/06/27 09:23:11;;;;;;;2.30;1.10;;;20.60;46.30;;;20.56;39.44;98249.59;4983430;28;20459;-69
2023/06/27 09:25:39;;;;;;;1.47;1.37;;;20.60;46.00;;;20.84;38.32;98255.59;4971432;28;20473;-71
2023/06/27 09:28:16;;;;;;;0.97;0.70;;;20.80;45.90;;;21.16;37.92;98250.88;4982932;28;20465;-69
2023/06/27 09:30:55;;;;;;;1.20;1.10;;;21.00;45.90;;;21.22;37.12;98256.06;4962911;28;20978;-69
2023/06/27 09:33:24;;;;;;;2.50;1.20;;;21.20;45.20;;;21.26;37.39;98252.75;4980800;28;20476;-70
2023/06/27 09:35:51;;;;;;;1.73;1.20;;;21.30;45.30;;;21.62;37.35;98239.69;4959164;28;20508;-70
2023/06/27 09:38:21;;;;;;;1.23;1.13;;;21.50;45.50;;;21.09;37.35;98251.16;4961843;28;20467;-68
2023/06/27 09:40:49;;;;;;;1.30;0.90;;;21.40;45.40;;;21.35;36.24;98249.13;4985489;28;20446;-70
2023/06/27 09:43:16;;;;;;;0.90;0.90;;;21.40;44.50;;;21.73;35.98;98251.47;4964257;28;20446;-69
2023/06/27 09:45:44;;;;;;;1.27;0.93;;;21.60;44.80;;;21.47;36.23;98237.00;4979876;28;20545;-70
2023/06/27 09:48:11;;;;;;;1.10;0.97;;;21.50;44.40;;;21.01;36.43;98183.09;4983836;28;20466;-70
2023/06/27 09:50:39;;;;;;;1.57;1.20;;;21.50;44.70;;;21.30;36.35;98242.84;4982308;28;20521;-69
2023/06/27 09:53:06;;;;;;;1.30;0.93;;;21.30;44.40;;;21.26;36.60;98239.00;4985515;28;20542;-69
2023/06/27 09:55:35;;;;;;;1.00;0.97;;;21.30;44.50;;;21.72;36.20;98236.06;4980088;28;20502;-70
2023/06/27 09:58:04;;;;;;;1.57;1.27;;;21.60;44.90;;;21.92;35.96;98234.34;4961568;28;20483;-70
2023/06/27 10:00:31;;;;;;;1.13;0.83;;;21.80;44.90;;;22.05;36.01;98238.34;4975446;28;20547;-70
2023/06/27 10:02:58;;;;;;;2.13;1.27;;;22.00;44.90;;;21.96;36.74;98235.41;4980561;28;20457;-70
2023/06/27 10:05:25;;;;;;;1.20;1.10;;;21.90;45.30;;;21.74;37.30;98236.63;4982456;28;20866;-68
2023/06/27 10:07:54;;;;;;;1.80;1.30;;;21.80;45.50;;;22.14;35.93;98233.91;4965813;28;20467;-70
2023/06/27 10:10:21;;;;;;;2.43;1.20;;;21.90;44.90;;;22.16;36.05;98241.84;4977805;28;20453;-68
2023/06/27 10:12:51;;;;;;;2.43;1.00;;;22.10;45.00;;;22.07;36.18;98247.16;4983704;28;20459;-69
2023/06/27 10:15:18;;;;;;;1.27;1.07;;;22.10;44.70;;;22.17;35.88;98246.25;4984567;28;20466;-70
2023/06/27 10:17:46;;;;;;;1.17;1.03;;;22.10;44.80;;;22.84;34.97;98242.13;4983088;28;20487;-69
2023/06/27 10:20:14;;;;;;;1.40;1.00;;;22.50;44.80;;;22.59;34.72;98233.00;4991658;28;20465;-69
2023/06/27 10:22:44;;;;;;;3.43;1.10;;;22.50;44.40;;;22.27;35.24;98235.16;4983868;28;20465;-70
2023/06/27 10:25:13;;;;;;;1.37;0.90;;;22.30;44.20;;;22.51;35.38;98217.91;4989110;28;20589;-69